Time;durP1;ratioP1;P1;durP2;ratioP2;P2;SDS_P1;SDS_P2;PMS_P1;PMS_P2;Temp;Humidity;BMP_temperature;BMP_pressure;BME280_temperature;BME280_humidity;BME280_pressure;Samples;Min_cycle;Max_cycle;Signal;HPM_P1;HPM_P2
2020/12/10 00:00:50;;;;;;;61.25;26.77;;;;;;;9.39;55.92;100589.34;5005301;28;97141;-76
2020/12/10 00:03:17;;;;;;;67.25;27.23;;;;;;;9.36;56.22;100589.16;5007227;28;97934;-73
2020/12/10 00:05:45;;;;;;;61.10;27.45;;;;;;;9.35;55.93;100584.75;5007147;28;99184;-73
2020/12/10 00:08:12;;;;;;;63.20;27.48;;;;;;;9.33;55.57;100583.75;5006420;28;98047;-74
2020/12/10 00:10:41;;;;;;;64.82;28.60;;;;;;;9.33;56.28;100580.22;5007970;28;97661;-72
2020/12/10 00:13:08;;;;;;;59.83;26.90;;;;;;;9.31;55.88;100580.13;5005585;28;97836;-72
2020/12/10 00:15:36;;;;;;;89.53;39.20;;;;;;;9.58;55.56;100565.91;5004448;28;98888;-73
2020/12/10 00:18:03;;;;;;;66.72;27.83;;;;;;;9.42;55.71;100568.53;5001221;28;97566;-74
2020/12/10 00:20:31;;;;;;;65.80;27.88;;;;;;;9.38;55.44;100576.16;5005374;28;96638;-76
2020/12/10 00:22:58;;;;;;;60.10;28.23;;;;;;;9.36;55.97;100581.28;5006982;28;98997;-73
2020/12/10 00:25:25;;;;;;;86.10;37.30;;;;;;;9.64;55.55;100571.47;5002919;28;97145;-75
2020/12/10 00:27:54;;;;;;;67.82;30.02;;;;;;;9.47;56.19;100577.53;5005452;28;97209;-72
2020/12/10 00:30:21;;;;;;;65.93;30.13;;;;;;;9.42;55.49;100573.75;5007907;28;96896;-73
2020/12/10 00:32:49;;;;;;;62.25;27.17;;;;;;;9.38;55.40;100569.16;5003777;28;97505;-72
2020/12/10 00:35:17;;;;;;;57.97;27.58;;;;;;;9.35;55.65;100562.84;5009550;28;97771;-73
2020/12/10 00:37:44;;;;;;;87.05;39.28;;;;;;;9.63;55.19;100553.03;5004369;28;97058;-74
2020/12/10 00:40:12;;;;;;;91.72;41.40;;;;;;;9.75;54.75;100565.06;5003570;28;96810;-74
2020/12/10 00:42:39;;;;;;;75.45;30.83;;;;;;;9.56;54.89;100566.66;5004358;28;98384;-73
2020/12/10 00:45:08;;;;;;;67.85;28.88;;;;;;;9.53;55.55;100566.47;5009144;28;97984;-74
2020/12/10 00:47:35;;;;;;;68.47;27.02;;;;;;;9.47;55.20;100564.41;5007548;28;97184;-71
2020/12/10 00:50:04;;;;;;;66.35;28.45;;;;;;;9.43;55.86;100559.84;5006249;28;97027;-73
2020/12/10 00:52:32;;;;;;;64.93;27.45;;;;;;;9.41;55.56;100564.13;5005073;28;97486;-73
2020/12/10 00:55:10;;;;;;;91.35;37.85;;;;;;;9.69;55.34;100562.13;5005384;28;97315;-73
2020/12/10 00:57:39;;;;;;;89.43;38.40;;;;;;;9.81;54.56;100559.25;5006156;28;99192;-73
2020/12/10 01:00:09;;;;;;;73.90;28.50;;;;;;;9.60;55.07;100552.91;5003422;28;97125;-75
2020/12/10 01:02:36;;;;;;;66.40;27.90;;;;;;;9.53;55.03;100555.97;5005432;28;97879;-74
2020/12/10 01:05:04;;;;;;;73.22;31.17;;;;;;;9.47;55.63;100558.31;5003782;28;99490;-74
2020/12/10 01:07:50;;;;;;;91.47;37.78;;;;;;;9.75;55.21;100553.69;5005207;28;97049;-73
2020/12/10 01:10:17;;;;;;;95.97;38.75;;;;;;;9.85;54.61;100555.97;5007322;28;97022;-73
2020/12/10 01:12:45;;;;;;;69.95;29.35;;;;;;;9.64;55.02;100555.75;5007116;28;98338;-75
2020/12/10 01:15:13;;;;;;;70.60;28.38;;;;;;;9.55;55.47;100547.38;5004927;28;98991;-73
2020/12/10 01:17:42;;;;;;;65.82;27.90;;;;;;;9.49;55.35;100546.19;5006021;28;97155;-73
2020/12/10 01:20:10;;;;;;;70.63;27.25;;;;;;;9.45;55.37;100545.09;5005662;28;97529;-74
2020/12/10 01:22:38;;;;;;;64.65;27.30;;;;;;;9.42;55.93;100547.53;5007747;28;99846;-74
2020/12/10 01:25:05;;;;;;;69.18;29.90;;;;;;;9.39;55.42;100541.25;5007550;28;97790;-74
2020/12/10 01:27:33;;;;;;;70.97;28.38;;;;;;;9.36;55.93;100547.22;5007681;28;96764;-74
2020/12/10 01:30:01;;;;;;;69.55;28.33;;;;;;;9.30;55.30;100531.19;5009616;28;96639;-73
2020/12/10 01:32:29;;;;;;;65.95;26.38;;;;;;;9.28;55.60;100538.06;5007682;28;97827;-74
2020/12/10 01:34:57;;;;;;;69.90;28.80;;;;;;;9.26;55.24;100531.81;5006737;28;98207;-74
2020/12/10 01:37:25;;;;;;;76.65;28.48;;;;;;;9.26;55.57;100541.41;5008509;28;97036;-75
2020/12/10 01:39:52;;;;;;;73.63;28.38;;;;;;;9.25;55.22;100522.19;5005778;28;97555;-73
2020/12/10 01:42:38;;;;;;;68.45;27.48;;;;;;;9.22;55.36;100521.97;5005185;28;98232;-73
2020/12/10 01:45:24;;;;;;;67.22;25.90;;;;;;;9.19;55.28;100516.59;5005463;28;99075;-73
2020/12/10 01:48:10;;;;;;;66.22;27.60;;;;;;;9.17;55.36;100529.63;5004203;28;96765;-74
2020/12/10 01:50:38;;;;;;;72.57;28.55;;;;;;;9.16;55.58;100533.03;5010281;28;97676;-73
2020/12/10 01:53:05;;;;;;;69.65;27.75;;;;;;;9.16;55.95;100526.88;5011580;28;99284;-73
2020/12/10 01:55:33;;;;;;;70.13;28.83;;;;;;;9.16;55.65;100532.13;5005236;28;97984;-73
2020/12/10 01:58:00;;;;;;;71.07;27.42;;;;;;;9.15;56.17;100530.34;5010367;28;97534;-73
2020/12/10 02:00:28;;;;;;;78.97;29.20;;;;;;;9.12;55.88;100532.81;5008009;28;97295;-74
2020/12/10 02:02:56;;;;;;;83.72;30.23;;;;;;;9.11;55.32;100528.38;5010801;28;101280;-72
2020/12/10 02:05:24;;;;;;;73.00;28.95;;;;;;;9.11;55.72;100517.88;5014084;28;97810;-73
2020/12/10 02:07:52;;;;;;;72.57;28.00;;;;;;;9.09;55.46;100517.81;4993649;28;96711;-73
2020/12/10 02:10:19;;;;;;;70.35;28.85;;;;;;;9.09;55.69;100514.28;5007456;28;97490;-74
2020/12/10 02:12:46;;;;;;;73.85;28.58;;;;;;;9.08;55.93;100517.72;5008954;28;99853;-73
2020/12/10 02:15:15;;;;;;;75.05;28.30;;;;;;;9.07;55.69;100515.91;5013079;28;98057;-73
2020/12/10 02:17:42;;;;;;;70.70;27.88;;;;;;;9.05;55.72;100513.22;5010408;28;97031;-73
2020/12/10 02:20:10;;;;;;;79.28;27.60;;;;;;;9.04;55.63;100511.41;5016949;27;97281;-73
2020/12/10 02:22:38;;;;;;;76.50;29.30;;;;;;;9.03;55.61;100508.72;5013265;27;99114;-74
2020/12/10 02:25:07;;;;;;;75.50;28.75;;;;;;;9.02;55.78;100502.56;5013508;28;97241;-73
2020/12/10 02:27:34;;;;;;;67.13;27.55;;;;;;;9.02;55.66;100501.66;5012959;28;96986;-73
2020/12/10 02:30:02;;;;;;;74.38;28.20;;;;;;;9.03;55.87;100501.75;5010210;28;96940;-74
2020/12/10 02:32:30;;;;;;;73.15;27.17;;;;;;;9.01;55.92;100502.50;5008896;28;97894;-73
2020/12/10 02:34:57;;;;;;;67.70;27.25;;;;;;;8.99;55.94;100497.19;5009656;28;98083;-73
2020/12/10 02:37:24;;;;;;;64.43;27.38;;;;;;;9.00;55.49;100492.81;5008111;28;96959;-75
2020/12/10 02:39:52;;;;;;;64.50;27.75;;;;;;;9.01;55.64;100499.88;5015233;28;97040;-73
2020/12/10 02:42:22;;;;;;;70.30;27.58;;;;;;;9.01;55.97;100484.16;5009916;28;99264;-72
2020/12/10 02:44:50;;;;;;;69.22;26.83;;;;;;;9.01;55.97;100484.16;5005272;28;100553;-73
2020/12/10 02:47:18;;;;;;;68.53;26.80;;;;;;;9.00;55.69;100487.56;5004222;28;97131;-73
2020/12/10 02:49:45;;;;;;;69.88;28.27;;;;;;;8.99;55.67;100477.94;5007817;28;97144;-74
2020/12/10 02:52:13;;;;;;;72.00;28.42;;;;;;;8.98;55.81;100473.50;5009293;28;98975;-73
2020/12/10 02:54:40;;;;;;;68.25;27.13;;;;;;;8.98;55.73;100483.97;5013571;28;99246;-73
2020/12/10 02:57:07;;;;;;;65.05;26.10;;;;;;;8.97;55.95;100476.94;5009597;28;97117;-75
2020/12/10 02:59:36;;;;;;;66.15;26.20;;;;;;;8.97;55.63;100469.09;5008815;28;97225;-74
2020/12/10 03:02:03;;;;;;;85.63;36.93;;;;;;;9.24;55.21;100467.94;5005890;28;98072;-74
2020/12/10 03:04:31;;;;;;;90.38;38.90;;;;;;;9.41;54.67;100469.75;5009711;28;98024;-74
2020/12/10 03:06:59;;;;;;;96.60;40.80;;;;;;;9.51;54.19;100468.47;5006283;28;97207;-74
2020/12/10 03:09:26;;;;;;;77.03;31.63;;;;;;;9.31;55.06;100464.81;5007547;28;98378;-74
2020/12/10 03:11:54;;;;;;;61.60;26.83;;;;;;;9.23;55.48;100461.78;5009909;28;99284;-73
2020/12/10 03:14:21;;;;;;;67.18;26.08;;;;;;;9.18;55.35;100458.03;5010664;28;97907;-74
2020/12/10 03:16:50;;;;;;;74.03;28.48;;;;;;;9.14;55.45;100453.44;5013190;28;96726;-75
2020/12/10 03:19:17;;;;;;;67.05;27.65;;;;;;;9.11;55.42;100449.75;5010102;28;96668;-73
2020/12/10 03:22:03;;;;;;;66.13;28.10;;;;;;;9.10;55.35;100453.22;5013948;28;98709;-73
2020/12/10 03:24:30;;;;;;;75.10;28.15;;;;;;;9.07;55.24;100461.78;5009368;28;97261;-74
2020/12/10 03:26:58;;;;;;;64.95;27.27;;;;;;;9.06;55.43;100459.09;5008905;28;96791;-74
2020/12/10 03:29:25;;;;;;;69.80;26.95;;;;;;;9.01;55.82;100448.34;5011114;28;96941;-73
2020/12/10 03:31:54;;;;;;;70.82;27.40;;;;;;;9.01;55.78;100453.59;5011218;28;99121;-73
2020/12/10 03:34:21;;;;;;;71.93;26.38;;;;;;;9.00;55.22;100449.19;5007353;27;97454;-74
2020/12/10 03:36:50;;;;;;;68.95;27.00;;;;;;;9.01;55.90;100463.19;5006758;28;96753;-72
2020/12/10 03:39:18;;;;;;;68.72;27.83;;;;;;;8.99;55.49;100443.88;5007278;28;97048;-73
2020/12/10 03:41:46;;;;;;;77.07;29.17;;;;;;;8.99;55.19;100449.13;5023349;27;98487;-74
2020/12/10 03:44:15;;;;;;;77.70;29.30;;;;;;;8.98;55.62;100448.22;5006928;28;98650;-73
2020/12/10 03:46:42;;;;;;;70.00;28.13;;;;;;;8.98;55.81;100439.44;5009957;28;97286;-74
2020/12/10 03:49:11;;;;;;;72.95;28.63;;;;;;;8.96;55.57;100433.22;5010602;28;96735;-74
2020/12/10 03:51:39;;;;;;;73.85;29.27;;;;;;;8.94;55.77;100432.25;5009974;28;98036;-73
2020/12/10 03:54:06;;;;;;;72.57;28.02;;;;;;;8.94;55.61;100432.25;5012265;28;100430;-74
2020/12/10 03:56:34;;;;;;;76.75;28.67;;;;;;;8.91;55.54;100432.06;5010164;28;97289;-74
2020/12/10 03:59:02;;;;;;;75.57;28.23;;;;;;;8.87;55.68;100436.25;5006283;28;97292;-73
2020/12/10 04:01:30;;;;;;;72.20;27.30;;;;;;;8.88;55.46;100439.78;5008421;28;97863;-75
2020/12/10 04:03:59;;;;;;;72.57;27.85;;;;;;;8.88;55.46;100437.16;5011517;28;98811;-74
2020/12/10 04:06:28;;;;;;;66.43;27.67;;;;;;;8.87;55.78;100437.97;5009057;28;96871;-72
2020/12/10 04:08:55;;;;;;;74.00;27.67;;;;;;;8.84;55.60;100428.25;5005489;28;96586;-72
2020/12/10 04:11:23;;;;;;;75.45;31.25;;;;;;;8.84;55.51;100437.81;5002365;28;97907;-74
2020/12/10 04:13:51;;;;;;;72.32;28.10;;;;;;;8.83;55.72;100428.16;5008707;28;99091;-74
2020/12/10 04:16:18;;;;;;;66.20;26.23;;;;;;;8.84;55.48;100435.19;5008447;28;96853;-72
2020/12/10 04:18:46;;;;;;;74.93;28.60;;;;;;;8.83;56.02;100433.41;5010237;28;97354;-73
2020/12/10 04:21:14;;;;;;;70.38;27.45;;;;;;;8.84;55.40;100433.47;5012809;28;100177;-73
2020/12/10 04:23:42;;;;;;;64.00;27.08;;;;;;;8.82;55.83;100429.88;5008594;28;99321;-74
2020/12/10 04:26:10;;;;;;;72.82;27.42;;;;;;;8.80;55.60;100435.81;5003649;28;97161;-73
2020/12/10 04:28:37;;;;;;;62.28;26.63;;;;;;;8.77;55.42;100435.69;5006991;28;97428;-73
2020/12/10 04:31:04;;;;;;;66.43;24.40;;;;;;;8.74;55.65;100439.00;5005217;28;99316;-74
2020/12/10 04:33:32;;;;;;;68.13;25.88;;;;;;;8.73;55.85;100431.06;5006979;28;97901;-75
2020/12/10 04:36:00;;;;;;;67.43;25.52;;;;;;;8.71;55.68;100430.09;5016304;28;97691;-73
2020/12/10 04:38:28;;;;;;;69.03;27.52;;;;;;;8.69;55.78;100436.97;5004709;28;96934;-74
2020/12/10 04:40:56;;;;;;;76.18;25.67;;;;;;;8.66;55.87;100429.84;5007133;28;98064;-72
2020/12/10 04:43:26;;;;;;;64.25;25.88;;;;;;;8.64;55.74;100443.66;5006405;28;99642;-73
2020/12/10 04:46:12;;;;;;;65.50;25.55;;;;;;;8.62;55.72;100445.31;5006942;28;97211;-73
2020/12/10 04:48:40;;;;;;;66.20;24.27;;;;;;;8.64;55.92;100446.28;5005681;28;97279;-75
2020/12/10 04:51:08;;;;;;;63.97;25.23;;;;;;;8.64;56.00;100446.28;5002579;28;98022;-73
2020/12/10 04:53:36;;;;;;;70.22;26.10;;;;;;;8.64;56.19;100455.06;5005623;28;98085;-73
2020/12/10 04:56:05;;;;;;;74.90;25.92;;;;;;;8.64;55.89;100449.81;5008455;28;96786;-74
2020/12/10 04:58:33;;;;;;;73.45;27.85;;;;;;;8.67;55.86;100454.28;5009007;28;97630;-74
2020/12/10 05:01:02;;;;;;;70.75;27.33;;;;;;;8.65;55.51;100455.97;5004151;28;98172;-75
2020/12/10 05:03:30;;;;;;;70.25;26.60;;;;;;;8.62;55.49;100456.69;5018475;27;99332;-74
2020/12/10 05:06:09;;;;;;;69.40;28.25;;;;;;;8.62;55.49;100454.06;5006959;28;97219;-75
2020/12/10 05:08:37;;;;;;;76.32;28.10;;;;;;;8.63;55.79;100465.44;5002235;28;97294;-76
2020/12/10 05:11:08;;;;;;;78.55;28.95;;;;;;;8.62;55.52;100461.00;5005639;28;97763;-75
2020/12/10 05:13:36;;;;;;;76.90;27.88;;;;;;;8.61;55.59;100475.81;5006734;28;99054;-75
2020/12/10 05:16:03;;;;;;;73.55;27.63;;;;;;;8.62;55.66;100461.00;5008500;27;97334;-74
2020/12/10 05:18:31;;;;;;;74.30;28.45;;;;;;;8.62;55.70;100463.63;5007796;28;96684;-75
2020/12/10 05:20:59;;;;;;;83.35;27.85;;;;;;;8.60;55.64;100470.50;5008340;28;99607;-75
2020/12/10 05:23:32;;;;;;;74.45;28.20;;;;;;;8.58;55.53;100465.19;5010836;28;101298;-74
2020/12/10 05:26:04;;;;;;;72.97;29.13;;;;;;;8.56;55.43;100464.19;5009286;28;97697;-74
2020/12/10 05:28:43;;;;;;;75.05;27.83;;;;;;;8.53;55.48;100463.13;5009086;28;97151;-74
2020/12/10 05:31:12;;;;;;;72.03;29.08;;;;;;;8.54;55.62;100465.81;5007069;28;98126;-74
2020/12/10 05:33:54;;;;;;;74.90;27.67;;;;;;;8.52;55.60;100463.94;5010988;28;98210;-74
2020/12/10 05:36:21;;;;;;;56.88;25.23;;;;;;;8.52;55.66;100461.31;5030517;27;97350;-75
2020/12/10 05:38:54;;;;;;;64.15;26.20;;;;;;;8.49;55.68;100453.28;5011055;28;96718;-74
2020/12/10 05:41:23;;;;;;;64.43;25.70;;;;;;;8.49;55.97;100448.03;5006265;28;99967;-75
2020/12/10 05:43:51;;;;;;;67.60;26.05;;;;;;;8.46;55.55;100458.34;5012065;28;97265;-76
2020/12/10 05:46:37;;;;;;;58.13;23.60;;;;;;;8.44;55.53;100452.13;5008471;28;97330;-74
2020/12/10 05:49:05;;;;;;;63.30;26.05;;;;;;;8.43;55.60;100453.84;5011218;28;97117;-75
2020/12/10 05:51:42;;;;;;;57.58;25.20;;;;;;;8.41;55.71;100460.69;5013481;28;99149;-74
2020/12/10 05:54:10;;;;;;;63.80;25.17;;;;;;;8.43;55.46;100463.44;5010079;28;99095;-74
2020/12/10 05:56:51;;;;;;;64.60;25.67;;;;;;;8.41;55.63;100472.91;4988709;28;99175;-75
2020/12/10 05:59:19;;;;;;;64.53;26.70;;;;;;;8.39;55.50;100464.97;5006142;28;96806;-73
2020/12/10 06:01:47;;;;;;;61.30;25.45;;;;;;;8.34;55.71;100462.91;5011443;28;98134;-75
2020/12/10 06:04:33;;;;;;;62.45;25.25;;;;;;;8.33;55.59;100471.56;5011163;28;97621;-73
2020/12/10 06:07:02;;;;;;;65.10;26.70;;;;;;;8.33;56.12;100479.41;5008197;28;96842;-75
2020/12/10 06:09:29;;;;;;;70.55;27.20;;;;;;;8.30;55.44;100471.41;5008308;28;96905;-75
2020/12/10 06:12:00;;;;;;;63.85;26.77;;;;;;;8.26;55.90;100480.78;5010715;28;98116;-75
2020/12/10 06:14:29;;;;;;;68.28;27.83;;;;;;;8.26;55.60;100474.66;5007284;28;98223;-74
2020/12/10 06:17:07;;;;;;;63.10;26.23;;;;;;;8.24;55.68;100482.41;5009729;28;97477;-74
2020/12/10 06:19:35;;;;;;;69.50;27.75;;;;;;;8.25;55.65;100488.56;5008989;28;97505;-74
2020/12/10 06:22:25;;;;;;;63.15;25.77;;;;;;;8.17;55.46;100485.47;5009713;28;97638;-75
2020/12/10 06:24:54;;;;;;;68.97;26.67;;;;;;;8.19;55.64;100484.72;5005777;28;97894;-75
2020/12/10 06:27:29;;;;;;;59.20;26.65;;;;;;;8.16;55.63;100484.56;5009792;28;97353;-75
2020/12/10 06:30:16;;;;;;;72.00;26.27;;;;;;;8.15;55.61;100488.00;5010164;28;96677;-75
2020/12/10 06:32:46;;;;;;;60.53;25.75;;;;;;;8.14;55.57;100495.72;5007412;28;100748;-76
2020/12/10 06:35:29;;;;;;;64.57;25.25;;;;;;;8.10;55.69;100494.66;5007855;28;97903;-74
2020/12/10 06:37:57;;;;;;;67.30;25.60;;;;;;;8.11;55.83;100491.25;5007194;28;96939;-74
2020/12/10 06:40:29;;;;;;;66.35;25.08;;;;;;;8.11;55.39;100496.47;5006911;28;97313;-74
2020/12/10 06:42:57;;;;;;;70.05;26.65;;;;;;;8.11;55.75;100488.63;4990150;28;101111;-75
2020/12/10 06:45:27;;;;;;;78.25;31.85;;;;;;;8.09;55.91;100499.81;5013251;28;99026;-74
2020/12/10 06:47:55;;;;;;;87.82;37.42;;;;;;;8.38;54.95;100496.28;5005052;28;97317;-74
2020/12/10 06:50:28;;;;;;;83.27;37.07;;;;;;;8.55;54.78;100495.53;5009482;28;97276;-73
2020/12/10 06:53:09;;;;;;;71.75;29.33;;;;;;;8.32;54.89;100493.31;5011355;28;100516;-74
2020/12/10 06:56:18;;;;;;;65.03;26.00;;;;;;;8.20;55.03;100496.09;5008253;28;102188;-75
2020/12/10 06:58:50;;;;;;;63.35;25.50;;;;;;;8.15;54.95;100490.63;4985229;28;97005;-73
2020/12/10 07:01:24;;;;;;;63.13;25.98;;;;;;;8.13;55.24;100492.25;5010323;28;97815;-75
2020/12/10 07:03:55;;;;;;;60.63;25.98;;;;;;;8.10;55.37;100493.78;5009189;28;98789;-75
2020/12/10 07:06:22;;;;;;;55.95;24.60;;;;;;;8.07;55.63;100489.25;5006436;28;101959;-74
2020/12/10 07:09:03;;;;;;;63.45;26.40;;;;;;;8.02;55.40;100493.31;5009762;28;97718;-74
2020/12/10 07:11:33;;;;;;;63.72;25.45;;;;;;;8.00;55.47;100492.34;5009665;28;97259;-75
2020/12/10 07:14:01;;;;;;;64.45;26.05;;;;;;;7.98;55.57;100493.94;5007391;28;97327;-73
2020/12/10 07:16:31;;;;;;;55.92;23.63;;;;;;;7.97;55.53;100489.50;5009486;28;98522;-74
2020/12/10 07:18:59;;;;;;;63.80;25.10;;;;;;;7.93;55.48;100498.03;5009116;28;96873;-73
2020/12/10 07:21:27;;;;;;;59.78;24.98;;;;;;;7.92;55.52;100485.75;5005412;28;97226;-73
2020/12/10 07:23:55;;;;;;;55.63;25.60;;;;;;;7.94;55.84;100491.06;5008969;28;97841;-75
2020/12/10 07:26:23;;;;;;;60.72;26.20;;;;;;;7.92;55.47;100483.13;5008281;28;98025;-73
2020/12/10 07:28:52;;;;;;;63.80;26.73;;;;;;;7.93;55.52;100497.09;5009070;28;97038;-74
2020/12/10 07:31:19;;;;;;;64.10;27.25;;;;;;;7.92;55.76;100488.34;5005321;28;96758;-74
2020/12/10 07:33:48;;;;;;;57.63;25.55;;;;;;;7.94;55.74;100497.19;5004376;28;98337;-74
2020/12/10 07:36:15;;;;;;;62.40;26.63;;;;;;;7.94;55.52;100491.06;5008521;28;97722;-74
2020/12/10 07:38:46;;;;;;;57.40;25.50;;;;;;;7.93;55.46;100490.19;4998288;28;96782;-74
2020/12/10 07:41:13;;;;;;;60.78;24.52;;;;;;;7.93;55.27;100489.25;5005908;28;96933;-75
2020/12/10 07:43:45;;;;;;;67.13;26.30;;;;;;;7.89;55.49;100489.88;5008681;28;97955;-73
2020/12/10 07:46:12;;;;;;;58.88;24.60;;;;;;;7.89;55.75;100490.81;5004057;28;97895;-74
2020/12/10 07:48:40;;;;;;;65.97;25.75;;;;;;;7.91;55.61;100491.78;5005021;28;97189;-75
2020/12/10 07:51:09;;;;;;;65.30;26.10;;;;;;;7.91;55.34;100497.03;5002140;28;97307;-75
2020/12/10 07:53:36;;;;;;;62.45;26.80;;;;;;;7.91;55.37;100497.03;5006996;28;98043;-73
2020/12/10 07:56:04;;;;;;;65.05;26.80;;;;;;;7.90;55.54;100500.44;5007485;28;98103;-73
2020/12/10 07:58:36;;;;;;;58.17;23.92;;;;;;;7.89;55.43;100488.19;5012209;28;96754;-74
2020/12/10 08:01:05;;;;;;;58.28;23.75;;;;;;;7.88;55.91;100494.22;5008653;28;97305;-74
2020/12/10 08:03:47;;;;;;;54.60;24.70;;;;;;;7.85;55.28;100500.97;5007969;28;98192;-74
2020/12/10 08:06:16;;;;;;;64.90;23.88;;;;;;;7.84;55.58;100492.25;5004736;28;98911;-74
2020/12/10 08:08:48;;;;;;;61.67;24.20;;;;;;;7.85;55.78;100487.91;5003676;28;97195;-74
2020/12/10 08:11:17;;;;;;;54.67;24.98;;;;;;;7.83;55.72;100482.59;5008225;28;96772;-74
2020/12/10 08:13:59;;;;;;;55.92;23.63;;;;;;;7.81;55.83;100484.22;5008030;28;100668;-74
2020/12/10 08:16:41;;;;;;;59.58;23.75;;;;;;;7.80;55.92;100482.41;5006749;28;99204;-73
2020/12/10 08:19:16;;;;;;;54.97;23.45;;;;;;;7.79;55.71;100485.81;5008115;28;97194;-73
2020/12/10 08:21:46;;;;;;;55.55;22.48;;;;;;;7.81;55.54;100475.47;5008009;28;97704;-74
2020/12/10 08:24:14;;;;;;;55.65;23.20;;;;;;;7.80;55.78;100482.41;5007437;27;97353;-74
2020/12/10 08:26:42;;;;;;;56.72;23.42;;;;;;;7.79;55.79;100479.72;5006233;28;97551;-73
2020/12/10 08:29:14;;;;;;;54.50;22.27;;;;;;;7.76;55.64;100480.44;5022770;22;97244;-73
2020/12/10 08:31:42;;;;;;;55.83;24.08;;;;;;;7.77;55.62;100484.84;4938086;28;99317;-74
2020/12/10 08:34:17;;;;;;;61.33;23.85;;;;;;;7.76;55.75;100477.81;4964009;28;98904;-74
2020/12/10 08:36:47;;;;;;;57.00;23.67;;;;;;;7.79;55.91;100472.75;4960705;28;99347;-75
2020/12/10 08:39:14;;;;;;;61.15;24.40;;;;;;;7.79;55.69;100474.50;4967007;28;96708;-74
2020/12/10 08:41:42;;;;;;;52.58;21.92;;;;;;;7.80;55.73;100479.81;4951624;28;97178;-74
2020/12/10 08:44:09;;;;;;;57.03;24.67;;;;;;;7.82;55.45;100482.50;4941122;28;97888;-74
2020/12/10 08:46:37;;;;;;;50.47;22.48;;;;;;;7.82;55.52;100485.13;4950531;28;97837;-74
2020/12/10 08:49:16;;;;;;;57.15;24.90;;;;;;;7.80;55.26;100479.81;4944030;28;97338;-74
2020/12/10 08:51:45;;;;;;;57.30;24.05;;;;;;;7.84;55.70;100486.13;4954142;28;96968;-74
2020/12/10 08:54:14;;;;;;;53.55;24.20;;;;;;;7.82;55.42;100490.34;4952583;28;97895;-74
2020/12/10 08:56:41;;;;;;;53.97;24.42;;;;;;;7.80;55.35;100486.75;4949861;28;99024;-74
2020/12/10 08:59:09;;;;;;;57.08;25.38;;;;;;;7.79;55.66;100480.59;4949774;28;96860;-74
2020/12/10 09:01:37;;;;;;;51.20;22.42;;;;;;;7.79;55.80;100475.38;4948980;28;97122;-74
2020/12/10 09:04:04;;;;;;;47.97;23.85;;;;;;;7.80;55.76;100476.28;4949047;28;99370;-74
2020/12/10 09:06:33;;;;;;;58.00;23.80;;;;;;;7.79;55.64;100480.59;4959037;28;98353;-72
2020/12/10 09:09:02;;;;;;;49.90;22.85;;;;;;;7.79;55.65;100480.59;4942316;28;97183;-72
2020/12/10 09:11:31;;;;;;;52.67;23.15;;;;;;;7.80;55.30;100486.75;4940922;28;96684;-75
2020/12/10 09:13:59;;;;;;;54.42;25.70;;;;;;;7.81;55.59;100478.09;4948543;28;99115;-72
2020/12/10 09:16:27;;;;;;;56.78;25.42;;;;;;;7.83;55.36;100490.44;4951918;28;98274;-72
2020/12/10 09:18:56;;;;;;;63.40;24.60;;;;;;;7.84;55.43;100488.72;4946492;28;97344;-72
2020/12/10 09:21:24;;;;;;;59.83;24.77;;;;;;;7.85;55.16;100490.50;4952770;28;96967;-73
2020/12/10 09:23:51;;;;;;;62.83;26.23;;;;;;;7.87;55.16;100488.91;4948603;28;102439;-72
2020/12/10 09:26:19;;;;;;;61.35;26.65;;;;;;;7.88;55.43;100495.94;4949979;28;99010;-72
2020/12/10 09:28:47;;;;;;;66.95;26.13;;;;;;;7.88;55.49;100491.59;4961737;28;96935;-75
2020/12/10 09:31:14;;;;;;;72.05;28.45;;;;;;;7.87;55.58;100495.03;4947215;28;97439;-72
2020/12/10 09:33:43;;;;;;;67.03;26.00;;;;;;;7.88;55.24;100490.72;4946567;28;98169;-72
2020/12/10 09:36:10;;;;;;;68.85;27.42;;;;;;;7.89;55.39;100489.88;4945918;28;97866;-75
2020/12/10 09:38:40;;;;;;;65.40;25.05;;;;;;;7.87;55.20;100494.13;4944151;28;97869;-72
2020/12/10 09:41:08;;;;;;;70.32;26.23;;;;;;;7.84;55.44;100476.56;4949982;28;97194;-74
2020/12/10 09:43:35;;;;;;;63.15;26.17;;;;;;;7.85;55.12;100478.34;4948114;28;101717;-74
2020/12/10 09:46:07;;;;;;;68.38;26.25;;;;;;;7.83;55.20;100477.34;4943565;28;99377;-74
2020/12/10 09:48:35;;;;;;;63.95;26.73;;;;;;;7.83;55.63;100468.59;4942433;28;97274;-74
2020/12/10 09:51:03;;;;;;;71.90;26.77;;;;;;;7.81;55.60;100468.53;4943035;28;97735;-74
2020/12/10 09:53:36;;;;;;;62.72;25.33;;;;;;;7.81;55.66;100465.91;4938790;28;99070;-74
2020/12/10 09:59:00;;;;;;;59.65;25.98;;;;;;;7.83;55.64;100451.22;4940300;28;97148;-74
2020/12/10 10:01:29;;;;;;;60.60;24.98;;;;;;;7.83;55.23;100440.75;4948553;28;96819;-74
2020/12/10 10:03:57;;;;;;;64.30;26.25;;;;;;;7.85;55.21;100446.97;4942909;28;97987;-73
2020/12/10 10:06:24;;;;;;;66.25;26.80;;;;;;;7.88;55.48;100448.88;4940698;28;97308;-74
2020/12/10 10:08:52;;;;;;;66.93;26.23;;;;;;;7.87;55.25;100447.06;4938320;28;97437;-74
2020/12/10 10:11:20;;;;;;;61.53;26.58;;;;;;;7.87;55.46;100450.59;4952027;28;97166;-72
2020/12/10 10:13:47;;;;;;;67.30;25.92;;;;;;;7.89;55.29;100445.44;4950724;28;99161;-74
2020/12/10 10:16:15;;;;;;;71.38;25.38;;;;;;;7.89;55.14;100441.13;4948729;28;99070;-74
2020/12/10 10:18:43;;;;;;;61.97;25.60;;;;;;;7.91;55.08;100446.44;4950135;28;97229;-73
2020/12/10 10:21:10;;;;;;;62.88;25.13;;;;;;;7.88;55.21;100439.28;4946939;28;97148;-73
2020/12/10 10:23:38;;;;;;;59.70;24.48;;;;;;;7.88;55.12;100433.19;4946341;28;98818;-74
2020/12/10 10:26:05;;;;;;;63.08;24.40;;;;;;;7.87;55.17;100429.66;4948222;28;97702;-73
2020/12/10 10:28:33;;;;;;;56.97;23.90;;;;;;;7.86;55.27;100430.50;4945513;28;97175;-74
2020/12/10 10:31:00;;;;;;;58.30;24.30;;;;;;;7.88;54.96;100435.81;4944273;28;98258;-73
2020/12/10 10:33:28;;;;;;;64.05;25.13;;;;;;;7.89;54.92;100430.66;4945314;28;97936;-74
2020/12/10 10:36:14;;;;;;;58.42;24.33;;;;;;;7.90;55.26;100436.81;4943950;28;97802;-73
2020/12/10 10:38:42;;;;;;;61.25;25.75;;;;;;;7.92;54.98;100433.44;4950281;28;96826;-74
2020/12/10 10:41:09;;;;;;;60.58;25.42;;;;;;;7.94;55.02;100430.91;4945903;28;97313;-74
2020/12/10 10:43:37;;;;;;;60.17;25.67;;;;;;;7.93;55.00;100424.81;4943388;28;99060;-74
2020/12/10 10:46:04;;;;;;;59.15;25.67;;;;;;;7.95;54.75;100420.56;4943268;28;99197;-73
2020/12/10 10:48:32;;;;;;;62.33;23.95;;;;;;;7.97;54.93;100407.56;4950088;28;97438;-73
2020/12/10 10:50:59;;;;;;;62.40;25.77;;;;;;;7.99;54.92;100413.78;4946189;28;97383;-74
2020/12/10 10:53:28;;;;;;;59.38;25.00;;;;;;;7.99;54.87;100417.28;4946179;28;97816;-74
2020/12/10 10:55:56;;;;;;;65.63;27.42;;;;;;;8.00;54.83;100411.25;4943747;28;99940;-74
2020/12/10 10:58:23;;;;;;;65.90;26.25;;;;;;;8.01;54.73;100407.81;4956279;28;97538;-74
2020/12/10 11:00:51;;;;;;;66.28;25.60;;;;;;;8.02;54.50;100412.25;4947375;28;96948;-74
2020/12/10 11:03:19;;;;;;;57.35;25.80;;;;;;;8.00;54.71;100403.41;4938857;28;99216;-73
2020/12/10 11:05:46;;;;;;;67.55;25.38;;;;;;;8.02;54.71;100407.03;4948553;28;100192;-73
2020/12/10 11:08:13;;;;;;;67.32;25.85;;;;;;;8.01;54.79;100405.19;4944718;28;97398;-73
2020/12/10 11:10:42;;;;;;;65.95;24.80;;;;;;;7.96;54.79;100401.44;4929804;28;97379;-74
2020/12/10 11:13:09;;;;;;;60.50;23.85;;;;;;;7.97;54.84;100407.56;4941366;28;101469;-74
2020/12/10 11:15:36;;;;;;;62.42;24.98;;;;;;;7.95;54.84;100414.41;4940819;28;97953;-73
2020/12/10 11:18:03;;;;;;;90.43;36.30;;;;;;;8.20;54.28;100408.06;4937964;28;97422;-73
2020/12/10 11:20:31;;;;;;;102.20;46.40;;;;;;;8.06;54.55;100411.59;4941683;28;97725;-74
2020/12/10 11:22:58;;;;;;;121.32;49.00;;;;;;;8.02;54.71;100420.09;4942753;28;98945;-74
2020/12/10 11:25:26;;;;;;;96.30;38.78;;;;;;;8.01;54.71;100418.28;4942888;28;97772;-74
2020/12/10 11:27:54;;;;;;;81.70;29.80;;;;;;;8.00;54.89;100413.88;4936681;28;97334;-74
2020/12/10 11:30:21;;;;;;;64.80;26.08;;;;;;;8.00;54.60;100410.34;4914438;28;782297;-74